sensor_id;sensor_type;location;lat;lon;timestamp;P1;durP1;ratioP1;P2;durP2;ratioP2
19671;SDS011;9983;51.114;13.788;2023-08-06T00:00:24;7.18;;;6.57;;
19671;SDS011;9983;51.114;13.788;2023-08-06T00:05:24;8.90;;;6.75;;
19671;SDS011;9983;51.114;13.788;2023-08-06T00:10:24;7.22;;;6.57;;
19671;SDS011;9983;51.114;13.788;2023-08-06T00:15:24;7.18;;;6.57;;
19671;SDS011;9983;51.114;13.788;2023-08-06T00:20:25;6.72;;;6.13;;
19671;SDS011;9983;51.114;13.788;2023-08-06T00:25:25;8.38;;;6.28;;
19671;SDS011;9983;51.114;13.788;2023-08-06T00:30:25;7.15;;;6.55;;
19671;SDS011;9983;51.114;13.788;2023-08-06T00:35:25;7.13;;;6.23;;
19671;SDS011;9983;51.114;13.788;2023-08-06T00:40:26;7.78;;;7.07;;
19671;SDS011;9983;51.114;13.788;2023-08-06T00:45:28;7.25;;;6.63;;
19671;SDS011;9983;51.114;13.788;2023-08-06T00:50:29;7.88;;;6.72;;
19671;SDS011;9983;51.114;13.788;2023-08-06T00:55:30;7.40;;;6.80;;
19671;SDS011;9983;51.114;13.788;2023-08-06T01:00:30;7.30;;;6.60;;
19671;SDS011;9983;51.114;13.788;2023-08-06T01:05:31;6.93;;;6.35;;
19671;SDS011;9983;51.114;13.788;2023-08-06T01:15:46;7.35;;;6.65;;
19671;SDS011;9983;51.114;13.788;2023-08-06T01:20:49;7.68;;;6.95;;
19671;SDS011;9983;51.114;13.788;2023-08-06T01:31:27;6.80;;;6.07;;
19671;SDS011;9983;51.114;13.788;2023-08-06T01:36:32;6.75;;;6.15;;
19671;SDS011;9983;51.114;13.788;2023-08-06T01:41:32;7.32;;;6.63;;
19671;SDS011;9983;51.114;13.788;2023-08-06T01:46:32;7.95;;;7.18;;
19671;SDS011;9983;51.114;13.788;2023-08-06T01:51:33;6.97;;;6.38;;
19671;SDS011;9983;51.114;13.788;2023-08-06T01:56:33;7.90;;;7.03;;
19671;SDS011;9983;51.114;13.788;2023-08-06T02:01:33;8.82;;;6.47;;
19671;SDS011;9983;51.114;13.788;2023-08-06T02:06:34;8.30;;;7.18;;
19671;SDS011;9983;51.114;13.788;2023-08-06T02:11:34;7.30;;;6.68;;
19671;SDS011;9983;51.114;13.788;2023-08-06T02:16:34;7.63;;;6.93;;
19671;SDS011;9983;51.114;13.788;2023-08-06T02:21:34;7.78;;;7.07;;
19671;SDS011;9983;51.114;13.788;2023-08-06T02:26:35;8.38;;;7.25;;
19671;SDS011;9983;51.114;13.788;2023-08-06T02:31:35;7.18;;;6.32;;
19671;SDS011;9983;51.114;13.788;2023-08-06T02:36:35;6.83;;;6.13;;
19671;SDS011;9983;51.114;13.788;2023-08-06T02:41:35;8.68;;;6.80;;
19671;SDS011;9983;51.114;13.788;2023-08-06T02:46:36;8.10;;;6.43;;
19671;SDS011;9983;51.114;13.788;2023-08-06T02:51:36;11.35;;;7.35;;
19671;SDS011;9983;51.114;13.788;2023-08-06T02:56:36;11.60;;;6.65;;
19671;SDS011;9983;51.114;13.788;2023-08-06T03:01:38;8.65;;;6.75;;
19671;SDS011;9983;51.114;13.788;2023-08-06T03:06:38;13.35;;;6.38;;
19671;SDS011;9983;51.114;13.788;2023-08-06T03:11:38;7.63;;;6.82;;
19671;SDS011;9983;51.114;13.788;2023-08-06T03:16:39;7.65;;;6.95;;
19671;SDS011;9983;51.114;13.788;2023-08-06T03:21:39;7.20;;;6.50;;
19671;SDS011;9983;51.114;13.788;2023-08-06T03:26:39;6.47;;;5.87;;
19671;SDS011;9983;51.114;13.788;2023-08-06T03:31:40;5.95;;;5.40;;
19671;SDS011;9983;51.114;13.788;2023-08-06T03:36:40;6.07;;;5.40;;
19671;SDS011;9983;51.114;13.788;2023-08-06T03:41:41;9.50;;;5.60;;
19671;SDS011;9983;51.114;13.788;2023-08-06T03:46:41;5.53;;;4.82;;
19671;SDS011;9983;51.114;13.788;2023-08-06T03:51:41;7.70;;;5.00;;
19671;SDS011;9983;51.114;13.788;2023-08-06T03:56:41;5.55;;;5.05;;
19671;SDS011;9983;51.114;13.788;2023-08-06T04:01:42;5.85;;;5.35;;
19671;SDS011;9983;51.114;13.788;2023-08-06T04:06:42;5.75;;;5.25;;
19671;SDS011;9983;51.114;13.788;2023-08-06T04:11:42;7.65;;;5.63;;
19671;SDS011;9983;51.114;13.788;2023-08-06T04:16:42;6.63;;;5.93;;
19671;SDS011;9983;51.114;13.788;2023-08-06T04:21:43;6.07;;;5.57;;
19671;SDS011;9983;51.114;13.788;2023-08-06T04:26:43;5.07;;;4.68;;
19671;SDS011;9983;51.114;13.788;2023-08-06T04:31:43;6.60;;;5.85;;
19671;SDS011;9983;51.114;13.788;2023-08-06T04:36:44;6.93;;;5.72;;
19671;SDS011;9983;51.114;13.788;2023-08-06T04:41:44;6.53;;;5.95;;
19671;SDS011;9983;51.114;13.788;2023-08-06T04:46:44;5.72;;;5.32;;
19671;SDS011;9983;51.114;13.788;2023-08-06T04:51:44;6.00;;;5.50;;
19671;SDS011;9983;51.114;13.788;2023-08-06T04:56:45;6.28;;;5.78;;
19671;SDS011;9983;51.114;13.788;2023-08-06T05:01:45;5.32;;;4.88;;
19671;SDS011;9983;51.114;13.788;2023-08-06T05:06:45;5.72;;;5.22;;
19671;SDS011;9983;51.114;13.788;2023-08-06T05:11:48;5.70;;;5.20;;
19671;SDS011;9983;51.114;13.788;2023-08-06T05:16:49;7.57;;;5.72;;
19671;SDS011;9983;51.114;13.788;2023-08-06T05:21:49;5.97;;;5.47;;
19671;SDS011;9983;51.114;13.788;2023-08-06T05:26:49;7.38;;;5.68;;
19671;SDS011;9983;51.114;13.788;2023-08-06T05:31:50;6.70;;;6.10;;
19671;SDS011;9983;51.114;13.788;2023-08-06T05:36:50;7.63;;;6.28;;
19671;SDS011;9983;51.114;13.788;2023-08-06T05:41:50;5.03;;;4.63;;
19671;SDS011;9983;51.114;13.788;2023-08-06T05:46:52;4.25;;;3.95;;
19671;SDS011;9983;51.114;13.788;2023-08-06T05:51:53;5.03;;;4.63;;
19671;SDS011;9983;51.114;13.788;2023-08-06T05:56:53;4.85;;;4.40;;
19671;SDS011;9983;51.114;13.788;2023-08-06T06:01:53;5.00;;;4.60;;
19671;SDS011;9983;51.114;13.788;2023-08-06T06:06:54;4.10;;;3.80;;
19671;SDS011;9983;51.114;13.788;2023-08-06T06:11:54;4.37;;;4.07;;
19671;SDS011;9983;51.114;13.788;2023-08-06T06:16:54;4.60;;;4.20;;
19671;SDS011;9983;51.114;13.788;2023-08-06T06:21:55;5.40;;;5.00;;
19671;SDS011;9983;51.114;13.788;2023-08-06T06:26:57;5.95;;;5.45;;
19671;SDS011;9983;51.114;13.788;2023-08-06T06:31:57;6.00;;;5.50;;
19671;SDS011;9983;51.114;13.788;2023-08-06T06:36:58;5.22;;;4.82;;
19671;SDS011;9983;51.114;13.788;2023-08-06T06:41:58;4.50;;;4.10;;
19671;SDS011;9983;51.114;13.788;2023-08-06T06:46:58;3.95;;;3.65;;
19671;SDS011;9983;51.114;13.788;2023-08-06T06:51:58;4.40;;;4.00;;
19671;SDS011;9983;51.114;13.788;2023-08-06T06:56:59;3.85;;;3.55;;
19671;SDS011;9983;51.114;13.788;2023-08-06T07:01:59;4.00;;;3.70;;
19671;SDS011;9983;51.114;13.788;2023-08-06T07:06:59;4.57;;;4.23;;
19671;SDS011;9983;51.114;13.788;2023-08-06T07:11:59;4.32;;;4.03;;
19671;SDS011;9983;51.114;13.788;2023-08-06T07:17:01;3.70;;;3.45;;
19671;SDS011;9983;51.114;13.788;2023-08-06T07:22:01;3.80;;;3.57;;
19671;SDS011;9983;51.114;13.788;2023-08-06T07:27:02;4.93;;;4.53;;
19671;SDS011;9983;51.114;13.788;2023-08-06T07:32:03;4.85;;;4.45;;
19671;SDS011;9983;51.114;13.788;2023-08-06T07:37:03;6.28;;;4.47;;
19671;SDS011;9983;51.114;13.788;2023-08-06T07:42:04;6.05;;;5.45;;
19671;SDS011;9983;51.114;13.788;2023-08-06T07:47:05;7.20;;;6.60;;
19671;SDS011;9983;51.114;13.788;2023-08-06T07:52:06;7.33;;;6.63;;
19671;SDS011;9983;51.114;13.788;2023-08-06T07:57:06;8.32;;;7.53;;
19671;SDS011;9983;51.114;13.788;2023-08-06T08:02:06;7.68;;;6.97;;
19671;SDS011;9983;51.114;13.788;2023-08-06T08:07:07;8.25;;;7.47;;
19671;SDS011;9983;51.114;13.788;2023-08-06T08:12:07;7.90;;;7.15;;
19671;SDS011;9983;51.114;13.788;2023-08-06T08:17:07;8.52;;;7.82;;
19671;SDS011;9983;51.114;13.788;2023-08-06T08:22:08;8.63;;;7.82;;
19671;SDS011;9983;51.114;13.788;2023-08-06T08:27:08;8.30;;;7.57;;
19671;SDS011;9983;51.114;13.788;2023-08-06T08:32:08;8.50;;;6.88;;
19671;SDS011;9983;51.114;13.788;2023-08-06T08:37:10;6.82;;;6.15;;
19671;SDS011;9983;51.114;13.788;2023-08-06T08:42:10;6.93;;;6.32;;
19671;SDS011;9983;51.114;13.788;2023-08-06T08:47:10;5.80;;;5.30;;
19671;SDS011;9983;51.114;13.788;2023-08-06T08:52:11;5.85;;;5.13;;
19671;SDS011;9983;51.114;13.788;2023-08-06T08:57:13;6.32;;;5.10;;
19671;SDS011;9983;51.114;13.788;2023-08-06T09:02:13;4.60;;;4.20;;
19671;SDS011;9983;51.114;13.788;2023-08-06T09:07:16;5.20;;;4.80;;
19671;SDS011;9983;51.114;13.788;2023-08-06T09:12:19;4.22;;;3.80;;
19671;SDS011;9983;51.114;13.788;2023-08-06T09:17:20;4.05;;;3.22;;
19671;SDS011;9983;51.114;13.788;2023-08-06T09:22:20;2.80;;;2.70;;
19671;SDS011;9983;51.114;13.788;2023-08-06T09:27:20;2.97;;;2.77;;
19671;SDS011;9983;51.114;13.788;2023-08-06T09:32:22;3.30;;;3.10;;
19671;SDS011;9983;51.114;13.788;2023-08-06T09:37:23;3.35;;;3.05;;
19671;SDS011;9983;51.114;13.788;2023-08-06T09:42:25;3.38;;;2.85;;
19671;SDS011;9983;51.114;13.788;2023-08-06T09:47:28;3.45;;;2.80;;
19671;SDS011;9983;51.114;13.788;2023-08-06T09:52:29;2.70;;;2.50;;
19671;SDS011;9983;51.114;13.788;2023-08-06T09:57:29;3.50;;;3.20;;
19671;SDS011;9983;51.114;13.788;2023-08-06T10:02:31;3.25;;;2.97;;
19671;SDS011;9983;51.114;13.788;2023-08-06T10:07:32;3.50;;;3.20;;
19671;SDS011;9983;51.114;13.788;2023-08-06T10:12:43;3.78;;;3.50;;
19671;SDS011;9983;51.114;13.788;2023-08-06T10:17:47;4.05;;;3.75;;
19671;SDS011;9983;51.114;13.788;2023-08-06T10:23:04;4.60;;;4.20;;
19671;SDS011;9983;51.114;13.788;2023-08-06T10:28:09;4.45;;;3.72;;
19671;SDS011;9983;51.114;13.788;2023-08-06T10:33:10;5.00;;;4.15;;
19671;SDS011;9983;51.114;13.788;2023-08-06T10:38:17;4.47;;;4.10;;
19671;SDS011;9983;51.114;13.788;2023-08-06T10:43:34;3.40;;;3.20;;
19671;SDS011;9983;51.114;13.788;2023-08-06T10:48:36;5.00;;;3.70;;
19671;SDS011;9983;51.114;13.788;2023-08-06T10:53:41;3.88;;;3.58;;
19671;SDS011;9983;51.114;13.788;2023-08-06T10:58:43;3.90;;;3.60;;
19671;SDS011;9983;51.114;13.788;2023-08-06T11:03:45;3.78;;;3.45;;
19671;SDS011;9983;51.114;13.788;2023-08-06T11:08:47;3.80;;;3.60;;
19671;SDS011;9983;51.114;13.788;2023-08-06T11:13:49;4.72;;;4.32;;
19671;SDS011;9983;51.114;13.788;2023-08-06T11:18:51;3.85;;;3.50;;
19671;SDS011;9983;51.114;13.788;2023-08-06T11:23:53;4.00;;;3.60;;
19671;SDS011;9983;51.114;13.788;2023-08-06T11:28:53;4.47;;;4.18;;
19671;SDS011;9983;51.114;13.788;2023-08-06T11:33:54;3.97;;;3.67;;
19671;SDS011;9983;51.114;13.788;2023-08-06T11:38:54;4.45;;;3.80;;
19671;SDS011;9983;51.114;13.788;2023-08-06T11:43:55;3.63;;;3.33;;
19671;SDS011;9983;51.114;13.788;2023-08-06T11:48:56;3.85;;;3.55;;
19671;SDS011;9983;51.114;13.788;2023-08-06T11:53:57;3.03;;;2.83;;
19671;SDS011;9983;51.114;13.788;2023-08-06T11:58:58;3.08;;;2.88;;
19671;SDS011;9983;51.114;13.788;2023-08-06T12:03:59;3.22;;;2.92;;
19671;SDS011;9983;51.114;13.788;2023-08-06T12:08:59;3.45;;;3.15;;
19671;SDS011;9983;51.114;13.788;2023-08-06T12:13:59;4.32;;;2.92;;
19671;SDS011;9983;51.114;13.788;2023-08-06T12:19:00;3.40;;;3.10;;
19671;SDS011;9983;51.114;13.788;2023-08-06T12:24:00;3.45;;;3.25;;
19671;SDS011;9983;51.114;13.788;2023-08-06T12:29:00;3.53;;;3.22;;
19671;SDS011;9983;51.114;13.788;2023-08-06T12:34:00;3.33;;;3.10;;
19671;SDS011;9983;51.114;13.788;2023-08-06T12:39:01;3.35;;;3.15;;
19671;SDS011;9983;51.114;13.788;2023-08-06T12:44:01;3.13;;;2.93;;
19671;SDS011;9983;51.114;13.788;2023-08-06T12:49:01;3.08;;;2.88;;
19671;SDS011;9983;51.114;13.788;2023-08-06T12:54:01;3.30;;;3.10;;
19671;SDS011;9983;51.114;13.788;2023-08-06T12:59:02;2.83;;;2.63;;
19671;SDS011;9983;51.114;13.788;2023-08-06T13:04:02;2.70;;;2.50;;
19671;SDS011;9983;51.114;13.788;2023-08-06T13:09:03;2.80;;;2.60;;
19671;SDS011;9983;51.114;13.788;2023-08-06T13:14:04;2.70;;;2.50;;
19671;SDS011;9983;51.114;13.788;2023-08-06T13:19:07;3.00;;;2.80;;
19671;SDS011;9983;51.114;13.788;2023-08-06T13:24:10;2.78;;;2.58;;
19671;SDS011;9983;51.114;13.788;2023-08-06T13:29:10;3.22;;;2.67;;
19671;SDS011;9983;51.114;13.788;2023-08-06T13:34:10;4.32;;;2.70;;
19671;SDS011;9983;51.114;13.788;2023-08-06T13:39:11;2.70;;;2.50;;
19671;SDS011;9983;51.114;13.788;2023-08-06T13:44:11;2.93;;;2.73;;
19671;SDS011;9983;51.114;13.788;2023-08-06T13:49:14;3.05;;;2.80;;
19671;SDS011;9983;51.114;13.788;2023-08-06T13:54:14;3.35;;;2.97;;
19671;SDS011;9983;51.114;13.788;2023-08-06T13:59:14;3.13;;;2.88;;
19671;SDS011;9983;51.114;13.788;2023-08-06T14:04:15;3.47;;;3.28;;
19671;SDS011;9983;51.114;13.788;2023-08-06T14:09:15;3.35;;;3.15;;
19671;SDS011;9983;51.114;13.788;2023-08-06T14:14:18;3.60;;;3.38;;
19671;SDS011;9983;51.114;13.788;2023-08-06T14:19:18;4.43;;;4.13;;
19671;SDS011;9983;51.114;13.788;2023-08-06T14:24:18;4.55;;;4.15;;
19671;SDS011;9983;51.114;13.788;2023-08-06T14:29:19;4.32;;;3.92;;
19671;SDS011;9983;51.114;13.788;2023-08-06T14:34:19;4.50;;;4.20;;
19671;SDS011;9983;51.114;13.788;2023-08-06T14:39:19;4.50;;;4.20;;
19671;SDS011;9983;51.114;13.788;2023-08-06T14:44:19;5.85;;;5.40;;
19671;SDS011;9983;51.114;13.788;2023-08-06T14:49:20;5.25;;;4.95;;
19671;SDS011;9983;51.114;13.788;2023-08-06T14:54:20;5.73;;;5.33;;
19671;SDS011;9983;51.114;13.788;2023-08-06T14:59:20;5.85;;;5.45;;
19671;SDS011;9983;51.114;13.788;2023-08-06T15:04:21;5.85;;;5.45;;
19671;SDS011;9983;51.114;13.788;2023-08-06T15:09:23;6.60;;;6.00;;
19671;SDS011;9983;51.114;13.788;2023-08-06T15:14:23;6.07;;;5.57;;
19671;SDS011;9983;51.114;13.788;2023-08-06T15:19:24;5.70;;;5.20;;
19671;SDS011;9983;51.114;13.788;2023-08-06T15:24:25;5.95;;;5.55;;
19671;SDS011;9983;51.114;13.788;2023-08-06T15:29:25;7.00;;;6.50;;
19671;SDS011;9983;51.114;13.788;2023-08-06T15:34:25;6.63;;;6.13;;
19671;SDS011;9983;51.114;13.788;2023-08-06T15:39:25;6.35;;;5.85;;
19671;SDS011;9983;51.114;13.788;2023-08-06T15:44:26;6.03;;;5.63;;
19671;SDS011;9983;51.114;13.788;2023-08-06T15:49:26;6.20;;;5.72;;
19671;SDS011;9983;51.114;13.788;2023-08-06T15:54:26;6.15;;;5.68;;
19671;SDS011;9983;51.114;13.788;2023-08-06T15:59:30;5.93;;;5.53;;
19671;SDS011;9983;51.114;13.788;2023-08-06T16:04:31;6.22;;;5.72;;
19671;SDS011;9983;51.114;13.788;2023-08-06T16:09:32;6.03;;;5.60;;
19671;SDS011;9983;51.114;13.788;2023-08-06T16:14:33;7.25;;;5.60;;
19671;SDS011;9983;51.114;13.788;2023-08-06T16:19:35;6.65;;;5.95;;
19671;SDS011;9983;51.114;13.788;2023-08-06T16:24:35;6.10;;;5.70;;
19671;SDS011;9983;51.114;13.788;2023-08-06T16:29:36;5.88;;;5.38;;
19671;SDS011;9983;51.114;13.788;2023-08-06T16:34:37;9.63;;;7.03;;
19671;SDS011;9983;51.114;13.788;2023-08-06T16:39:38;9.85;;;8.85;;
19671;SDS011;9983;51.114;13.788;2023-08-06T16:44:38;12.50;;;9.55;;
19671;SDS011;9983;51.114;13.788;2023-08-06T16:49:40;11.18;;;9.68;;
19671;SDS011;9983;51.114;13.788;2023-08-06T16:54:40;11.93;;;9.85;;
19671;SDS011;9983;51.114;13.788;2023-08-06T16:59:41;9.63;;;8.80;;
19671;SDS011;9983;51.114;13.788;2023-08-06T17:04:43;11.85;;;10.07;;
19671;SDS011;9983;51.114;13.788;2023-08-06T17:09:43;10.23;;;9.32;;
19671;SDS011;9983;51.114;13.788;2023-08-06T17:14:44;9.55;;;8.65;;
19671;SDS011;9983;51.114;13.788;2023-08-06T17:19:44;9.18;;;8.13;;
19671;SDS011;9983;51.114;13.788;2023-08-06T17:24:44;7.70;;;7.00;;
19671;SDS011;9983;51.114;13.788;2023-08-06T17:29:44;7.65;;;6.60;;
19671;SDS011;9983;51.114;13.788;2023-08-06T17:34:47;7.65;;;6.95;;
19671;SDS011;9983;51.114;13.788;2023-08-06T17:39:47;8.25;;;7.45;;
19671;SDS011;9983;51.114;13.788;2023-08-06T17:44:47;8.80;;;7.00;;
19671;SDS011;9983;51.114;13.788;2023-08-06T17:49:47;7.60;;;6.38;;
19671;SDS011;9983;51.114;13.788;2023-08-06T17:54:48;7.50;;;6.85;;
19671;SDS011;9983;51.114;13.788;2023-08-06T17:59:48;8.13;;;7.35;;
19671;SDS011;9983;51.114;13.788;2023-08-06T18:04:48;8.23;;;7.53;;
19671;SDS011;9983;51.114;13.788;2023-08-06T18:09:48;8.02;;;7.22;;
19671;SDS011;9983;51.114;13.788;2023-08-06T18:14:49;8.25;;;7.45;;
19671;SDS011;9983;51.114;13.788;2023-08-06T18:19:50;7.82;;;7.13;;
19671;SDS011;9983;51.114;13.788;2023-08-06T18:24:50;8.32;;;7.63;;
19671;SDS011;9983;51.114;13.788;2023-08-06T18:29:50;9.43;;;8.43;;
19671;SDS011;9983;51.114;13.788;2023-08-06T18:34:50;9.47;;;8.57;;
19671;SDS011;9983;51.114;13.788;2023-08-06T18:39:51;11.43;;;10.25;;
19671;SDS011;9983;51.114;13.788;2023-08-06T18:44:51;7.68;;;4.50;;
19671;SDS011;9983;51.114;13.788;2023-08-06T18:49:51;3.83;;;3.40;;
19671;SDS011;9983;51.114;13.788;2023-08-06T18:54:52;3.10;;;2.90;;
19671;SDS011;9983;51.114;13.788;2023-08-06T18:59:52;3.03;;;2.47;;
19671;SDS011;9983;51.114;13.788;2023-08-06T19:04:54;2.28;;;2.17;;
19671;SDS011;9983;51.114;13.788;2023-08-06T19:09:54;3.75;;;2.85;;
19671;SDS011;9983;51.114;13.788;2023-08-06T19:14:54;2.63;;;2.47;;
19671;SDS011;9983;51.114;13.788;2023-08-06T19:19:55;3.20;;;2.43;;
19671;SDS011;9983;51.114;13.788;2023-08-06T19:24:55;2.93;;;2.60;;
19671;SDS011;9983;51.114;13.788;2023-08-06T19:29:55;3.55;;;2.80;;
19671;SDS011;9983;51.114;13.788;2023-08-06T19:34:55;5.47;;;3.60;;
19671;SDS011;9983;51.114;13.788;2023-08-06T19:39:57;3.60;;;3.15;;
19671;SDS011;9983;51.114;13.788;2023-08-06T19:44:57;5.07;;;3.65;;
19671;SDS011;9983;51.114;13.788;2023-08-06T19:49:57;2.90;;;2.70;;
19671;SDS011;9983;51.114;13.788;2023-08-06T19:54:58;3.28;;;3.08;;
19671;SDS011;9983;51.114;13.788;2023-08-06T19:59:58;3.30;;;2.80;;
19671;SDS011;9983;51.114;13.788;2023-08-06T20:04:59;3.15;;;2.85;;
19671;SDS011;9983;51.114;13.788;2023-08-06T20:09:59;5.10;;;3.33;;
19671;SDS011;9983;51.114;13.788;2023-08-06T20:14:59;3.58;;;3.33;;
19671;SDS011;9983;51.114;13.788;2023-08-06T20:20:00;4.22;;;3.63;;
19671;SDS011;9983;51.114;13.788;2023-08-06T20:25:00;4.38;;;3.45;;
19671;SDS011;9983;51.114;13.788;2023-08-06T20:30:00;5.30;;;3.38;;
19671;SDS011;9983;51.114;13.788;2023-08-06T20:35:01;4.10;;;3.58;;
19671;SDS011;9983;51.114;13.788;2023-08-06T20:40:01;3.97;;;3.58;;
19671;SDS011;9983;51.114;13.788;2023-08-06T20:45:02;5.50;;;4.70;;
19671;SDS011;9983;51.114;13.788;2023-08-06T20:50:03;6.75;;;6.15;;
19671;SDS011;9983;51.114;13.788;2023-08-06T20:55:03;10.02;;;8.52;;
19671;SDS011;9983;51.114;13.788;2023-08-06T21:00:04;10.98;;;7.65;;
19671;SDS011;9983;51.114;13.788;2023-08-06T21:05:05;6.07;;;5.47;;
19671;SDS011;9983;51.114;13.788;2023-08-06T21:10:05;6.72;;;5.20;;
19671;SDS011;9983;51.114;13.788;2023-08-06T21:15:06;5.47;;;4.70;;
19671;SDS011;9983;51.114;13.788;2023-08-06T21:20:07;4.57;;;4.18;;
19671;SDS011;9983;51.114;13.788;2023-08-06T21:25:09;5.63;;;4.78;;
19671;SDS011;9983;51.114;13.788;2023-08-06T21:30:09;5.25;;;4.85;;
19671;SDS011;9983;51.114;13.788;2023-08-06T21:35:12;4.75;;;4.35;;
19671;SDS011;9983;51.114;13.788;2023-08-06T21:40:13;4.05;;;3.75;;
19671;SDS011;9983;51.114;13.788;2023-08-06T21:45:13;4.32;;;3.88;;
19671;SDS011;9983;51.114;13.788;2023-08-06T21:50:13;5.45;;;4.10;;
19671;SDS011;9983;51.114;13.788;2023-08-06T21:55:14;4.15;;;3.75;;
19671;SDS011;9983;51.114;13.788;2023-08-06T22:00:15;3.58;;;3.28;;
19671;SDS011;9983;51.114;13.788;2023-08-06T22:05:18;3.45;;;3.08;;
19671;SDS011;9983;51.114;13.788;2023-08-06T22:10:18;4.18;;;2.95;;
19671;SDS011;9983;51.114;13.788;2023-08-06T22:15:19;4.35;;;2.90;;
19671;SDS011;9983;51.114;13.788;2023-08-06T22:20:19;3.35;;;3.05;;
19671;SDS011;9983;51.114;13.788;2023-08-06T22:25:20;2.88;;;2.67;;
19671;SDS011;9983;51.114;13.788;2023-08-06T22:30:21;3.30;;;2.95;;
19671;SDS011;9983;51.114;13.788;2023-08-06T22:35:21;4.60;;;3.03;;
19671;SDS011;9983;51.114;13.788;2023-08-06T22:40:22;3.05;;;2.75;;
19671;SDS011;9983;51.114;13.788;2023-08-06T22:45:22;2.95;;;2.55;;
19671;SDS011;9983;51.114;13.788;2023-08-06T22:50:22;3.17;;;2.88;;
19671;SDS011;9983;51.114;13.788;2023-08-06T22:55:22;3.20;;;2.90;;
19671;SDS011;9983;51.114;13.788;2023-08-06T23:00:23;3.40;;;2.65;;
19671;SDS011;9983;51.114;13.788;2023-08-06T23:05:23;3.03;;;2.70;;
19671;SDS011;9983;51.114;13.788;2023-08-06T23:10:23;2.97;;;2.78;;
19671;SDS011;9983;51.114;13.788;2023-08-06T23:15:24;3.35;;;3.05;;
19671;SDS011;9983;51.114;13.788;2023-08-06T23:20:24;3.05;;;2.85;;
19671;SDS011;9983;51.114;13.788;2023-08-06T23:25:24;3.97;;;3.65;;
19671;SDS011;9983;51.114;13.788;2023-08-06T23:30:25;4.60;;;3.70;;
19671;SDS011;9983;51.114;13.788;2023-08-06T23:35:25;3.77;;;3.47;;
19671;SDS011;9983;51.114;13.788;2023-08-06T23:40:25;4.05;;;3.75;;
19671;SDS011;9983;51.114;13.788;2023-08-06T23:45:25;4.57;;;4.18;;
19671;SDS011;9983;51.114;13.788;2023-08-06T23:50:26;5.00;;;4.60;;
19671;SDS011;9983;51.114;13.788;2023-08-06T23:55:28;4.38;;;4.07;;
